VOZ775 YBBN-YSCB
Flight info
| Callsign | VOZ775 |
|---|---|
| Flight time | 1h 26m |
| Altitude | 36000 |
| Route | SANEG H91 ADMAR Q78 OLTIN/N0451F370 H201 TESAT/N0448F380 H65 LEECE |
| Aircraft | B738/M-SDE2E3FGHIRWXY/LB1 |
Departure
| Time | 2026-04-30 10:52 |
|---|---|
| Airport | Brisbane International Airport (YBBN) |
Arrival
| Time | 2026-04-30 12:18 |
|---|---|
| Airport | Canberra Airport (YSCB) |
| Time | Latitude | Longitude | Altitude | Speed | Heading |
|---|---|---|---|---|---|
| 2026-04-30 10:24 | -27.38879 | 153.11917 | 17 ft | 0 kts | 8° |
| 2026-04-30 10:41 | -27.38880 | 153.11917 | 19 ft | 2 kts | 8° |
| 2026-04-30 10:41 | -27.38893 | 153.11914 | 18 ft | 2 kts | 8° |
| 2026-04-30 10:41 | -27.38907 | 153.11912 | 17 ft | 2 kts | 8° |
| 2026-04-30 10:41 | -27.38922 | 153.11908 | 19 ft | 2 kts | 35° |
| 2026-04-30 10:42 | -27.38931 | 153.11893 | 17 ft | 2 kts | 95° |
| 2026-04-30 10:42 | -27.38930 | 153.11883 | 17 ft | 1 kts | 114° |
| 2026-04-30 10:42 | -27.38929 | 153.11882 | 17 ft | 0 kts | 116° |
| 2026-04-30 10:45 | -27.38931 | 153.11885 | 17 ft | 3 kts | 116° |
| 2026-04-30 10:45 | -27.38956 | 153.11941 | 17 ft | 11 kts | 117° |
| 2026-04-30 10:45 | -27.38993 | 153.12010 | 17 ft | 12 kts | 129° |
| 2026-04-30 10:45 | -27.39032 | 153.12088 | 18 ft | 12 kts | 118° |
| 2026-04-30 10:46 | -27.39013 | 153.12178 | 17 ft | 14 kts | 34° |
| 2026-04-30 10:46 | -27.38921 | 153.12232 | 17 ft | 16 kts | 27° |
| 2026-04-30 10:46 | -27.38830 | 153.12284 | 17 ft | 17 kts | 27° |
| 2026-04-30 10:46 | -27.38734 | 153.12340 | 18 ft | 16 kts | 27° |
| 2026-04-30 10:47 | -27.38634 | 153.12396 | 17 ft | 17 kts | 27° |
| 2026-04-30 10:47 | -27.38510 | 153.12468 | 18 ft | 24 kts | 27° |
| 2026-04-30 10:47 | -27.38376 | 153.12544 | 17 ft | 20 kts | 26° |
| 2026-04-30 10:47 | -27.38255 | 153.12613 | 18 ft | 19 kts | 27° |
| 2026-04-30 10:48 | -27.38136 | 153.12680 | 18 ft | 19 kts | 27° |
| 2026-04-30 10:48 | -27.38023 | 153.12748 | 18 ft | 18 kts | 28° |
| 2026-04-30 10:48 | -27.38004 | 153.12836 | 17 ft | 13 kts | 114° |
| 2026-04-30 10:48 | -27.38043 | 153.12923 | 18 ft | 12 kts | 116° |
| 2026-04-30 10:49 | -27.38063 | 153.12969 | 18 ft | 0 kts | 117° |
| 2026-04-30 10:49 | -27.38064 | 153.12969 | 18 ft | 1 kts | 117° |
| 2026-04-30 10:49 | -27.38079 | 153.13002 | 21 ft | 9 kts | 117° |
| 2026-04-30 10:50 | -27.38124 | 153.13051 | 20 ft | 10 kts | 186° |
| 2026-04-30 10:50 | -27.38158 | 153.13035 | 22 ft | 0 kts | 206° |
| 2026-04-30 10:51 | -27.38182 | 153.13021 | 23 ft | 18 kts | 207° |
| 2026-04-30 10:51 | -27.38497 | 153.12841 | 21 ft | 83 kts | 206° |
| 2026-04-30 10:51 | -27.39155 | 153.12465 | 19 ft | 135 kts | 207° |
| 2026-04-30 10:51 | -27.39957 | 153.12005 | 112 ft | 162 kts | 206° |
| 2026-04-30 10:52 | -27.40689 | 153.11583 | 517 ft | 164 kts | 207° |
| 2026-04-30 10:52 | -27.41629 | 153.11136 | 1080 ft | 162 kts | 186° |
| 2026-04-30 10:52 | -27.42681 | 153.11213 | 1673 ft | 158 kts | 159° |
| 2026-04-30 10:52 | -27.43721 | 153.11677 | 2321 ft | 166 kts | 154° |
| 2026-04-30 10:53 | -27.44828 | 153.12277 | 2757 ft | 185 kts | 150° |
| 2026-04-30 10:53 | -27.46033 | 153.12966 | 3082 ft | 204 kts | 150° |
| 2026-04-30 10:53 | -27.47168 | 153.13613 | 3362 ft | 221 kts | 151° |
| 2026-04-30 10:53 | -27.48441 | 153.14314 | 4127 ft | 217 kts | 152° |
| 2026-04-30 10:54 | -27.49877 | 153.14779 | 4701 ft | 221 kts | 175° |
| 2026-04-30 10:54 | -27.51478 | 153.14584 | 4867 ft | 245 kts | 186° |
| 2026-04-30 10:54 | -27.53185 | 153.14159 | 5350 ft | 259 kts | 188° |
| 2026-04-30 10:54 | -27.54961 | 153.13695 | 6025 ft | 265 kts | 188° |
| 2026-04-30 10:55 | -27.56758 | 153.13127 | 6761 ft | 271 kts | 194° |
| 2026-04-30 10:55 | -27.58548 | 153.12405 | 7470 ft | 274 kts | 195° |
| 2026-04-30 10:55 | -27.60219 | 153.11724 | 8094 ft | 279 kts | 195° |
| 2026-04-30 10:55 | -27.62064 | 153.10981 | 8802 ft | 282 kts | 195° |
| 2026-04-30 10:56 | -27.63948 | 153.10315 | 9505 ft | 285 kts | 193° |
| 2026-04-30 10:56 | -27.65867 | 153.09685 | 10199 ft | 289 kts | 193° |
| 2026-04-30 10:56 | -27.67865 | 153.09036 | 10446 ft | 310 kts | 193° |
| 2026-04-30 10:56 | -27.70000 | 153.08339 | 10605 ft | 331 kts | 193° |
| 2026-04-30 10:57 | -27.72240 | 153.07599 | 10915 ft | 345 kts | 194° |
| 2026-04-30 10:57 | -27.74563 | 153.06824 | 11467 ft | 350 kts | 194° |
| 2026-04-30 10:57 | -27.76911 | 153.06038 | 12117 ft | 353 kts | 194° |
| 2026-04-30 10:57 | -27.79199 | 153.05272 | 12743 ft | 356 kts | 194° |
| 2026-04-30 10:58 | -27.81596 | 153.04470 | 13373 ft | 360 kts | 195° |
| 2026-04-30 10:58 | -27.83988 | 153.03552 | 14028 ft | 365 kts | 198° |
| 2026-04-30 10:58 | -27.86340 | 153.02523 | 14624 ft | 369 kts | 200° |
| 2026-04-30 10:58 | -27.88739 | 153.01442 | 15245 ft | 371 kts | 200° |
| 2026-04-30 10:59 | -27.91100 | 153.00378 | 15860 ft | 374 kts | 200° |
| 2026-04-30 10:59 | -27.93531 | 152.99294 | 16490 ft | 378 kts | 200° |
| 2026-04-30 10:59 | -27.95990 | 152.98207 | 17101 ft | 381 kts | 200° |
| 2026-04-30 10:59 | -27.98471 | 152.97117 | 17710 ft | 384 kts | 200° |
| 2026-04-30 11:00 | -28.00917 | 152.96044 | 18294 ft | 387 kts | 200° |
| 2026-04-30 11:00 | -28.03417 | 152.94950 | 18843 ft | 391 kts | 200° |
| 2026-04-30 11:00 | -28.05963 | 152.93834 | 19374 ft | 393 kts | 201° |
| 2026-04-30 11:00 | -28.08521 | 152.92712 | 19911 ft | 395 kts | 201° |
| 2026-04-30 11:01 | -28.11096 | 152.91577 | 20444 ft | 398 kts | 201° |
| 2026-04-30 11:01 | -28.13682 | 152.90428 | 20942 ft | 401 kts | 201° |
| 2026-04-30 11:01 | -28.16293 | 152.89265 | 21444 ft | 404 kts | 202° |
| 2026-04-30 11:01 | -28.18918 | 152.88094 | 21952 ft | 406 kts | 202° |
| 2026-04-30 11:02 | -28.21558 | 152.86916 | 22449 ft | 409 kts | 202° |
| 2026-04-30 11:02 | -28.24220 | 152.85728 | 22929 ft | 412 kts | 202° |
| 2026-04-30 11:02 | -28.26892 | 152.84536 | 23395 ft | 414 kts | 202° |
| 2026-04-30 11:02 | -28.29548 | 152.83350 | 23850 ft | 417 kts | 202° |
| 2026-04-30 11:03 | -28.32261 | 152.82138 | 24260 ft | 419 kts | 202° |
| 2026-04-30 11:03 | -28.34984 | 152.80922 | 24659 ft | 421 kts | 202° |
| 2026-04-30 11:03 | -28.37700 | 152.79708 | 25204 ft | 418 kts | 204° |
| 2026-04-30 11:04 | -28.43132 | 152.77280 | 25994 ft | 421 kts | 204° |
| 2026-04-30 11:04 | -28.45875 | 152.76048 | 26256 ft | 427 kts | 204° |
| 2026-04-30 11:04 | -28.48611 | 152.74819 | 26568 ft | 430 kts | 204° |
| 2026-04-30 11:04 | -28.51358 | 152.73588 | 27001 ft | 430 kts | 204° |
| 2026-04-30 11:05 | -28.54161 | 152.72336 | 27283 ft | 433 kts | 203° |
| 2026-04-30 11:05 | -28.56973 | 152.71078 | 27583 ft | 436 kts | 204° |
| 2026-04-30 11:05 | -28.59806 | 152.69805 | 27947 ft | 438 kts | 203° |
| 2026-04-30 11:05 | -28.61690 | 152.68959 | 28111 ft | 440 kts | 203° |
| 2026-04-30 11:06 | -28.64557 | 152.67668 | 28384 ft | 444 kts | 203° |
| 2026-04-30 11:06 | -28.68374 | 152.65950 | 28838 ft | 445 kts | 203° |
| 2026-04-30 11:06 | -28.71264 | 152.64649 | 29188 ft | 447 kts | 203° |
| 2026-04-30 11:06 | -28.73216 | 152.63770 | 29410 ft | 448 kts | 203° |
| 2026-04-30 11:07 | -28.76086 | 152.62477 | 29709 ft | 450 kts | 204° |
| 2026-04-30 11:07 | -28.79009 | 152.61159 | 30009 ft | 452 kts | 204° |
| 2026-04-30 11:07 | -28.81974 | 152.59822 | 30364 ft | 452 kts | 204° |
| 2026-04-30 11:07 | -28.84839 | 152.58518 | 30755 ft | 450 kts | 205° |
| 2026-04-30 11:08 | -28.87616 | 152.57011 | 31105 ft | 448 kts | 208° |
| 2026-04-30 11:08 | -28.90386 | 152.55376 | 31452 ft | 447 kts | 210° |
| 2026-04-30 11:08 | -28.93130 | 152.53716 | 31804 ft | 445 kts | 210° |
| 2026-04-30 11:08 | -28.95870 | 152.52050 | 32151 ft | 444 kts | 210° |
| 2026-04-30 11:09 | -28.98594 | 152.50402 | 32553 ft | 441 kts | 210° |
| 2026-04-30 11:09 | -29.01307 | 152.48771 | 32919 ft | 440 kts | 210° |
| 2026-04-30 11:09 | -29.03176 | 152.47651 | 33134 ft | 439 kts | 210° |
| 2026-04-30 11:09 | -29.05892 | 152.46027 | 33423 ft | 439 kts | 210° |
| 2026-04-30 11:10 | -29.08602 | 152.44411 | 33728 ft | 439 kts | 210° |
| 2026-04-30 11:10 | -29.11308 | 152.42797 | 34047 ft | 438 kts | 210° |
| 2026-04-30 11:10 | -29.14011 | 152.41186 | 34382 ft | 437 kts | 210° |
| 2026-04-30 11:10 | -29.16704 | 152.39579 | 34653 ft | 436 kts | 210° |
| 2026-04-30 11:11 | -29.19403 | 152.37967 | 34859 ft | 437 kts | 210° |
| 2026-04-30 11:11 | -29.21950 | 152.36445 | 35042 ft | 437 kts | 210° |
| 2026-04-30 11:11 | -29.24652 | 152.34829 | 35268 ft | 437 kts | 210° |
| 2026-04-30 11:11 | -29.27344 | 152.33219 | 35503 ft | 437 kts | 210° |
| 2026-04-30 11:12 | -29.30042 | 152.31603 | 35724 ft | 437 kts | 210° |
| 2026-04-30 11:12 | -29.32709 | 152.30005 | 35917 ft | 438 kts | 210° |
| 2026-04-30 11:12 | -29.35412 | 152.28385 | 36125 ft | 438 kts | 210° |
| 2026-04-30 11:12 | -29.38116 | 152.26763 | 36343 ft | 437 kts | 210° |
| 2026-04-30 11:13 | -29.40824 | 152.25137 | 36406 ft | 441 kts | 210° |
| 2026-04-30 11:13 | -29.46271 | 152.21863 | 36425 ft | 447 kts | 210° |
| 2026-04-30 11:14 | -29.51515 | 152.18710 | 36442 ft | 453 kts | 210° |
| 2026-04-30 11:14 | -29.57129 | 152.15328 | 36426 ft | 456 kts | 210° |
| 2026-04-30 11:15 | -29.62730 | 152.11952 | 36430 ft | 457 kts | 210° |
| 2026-04-30 11:15 | -29.68367 | 152.08559 | 36426 ft | 457 kts | 209° |
| 2026-04-30 11:16 | -29.74290 | 152.06279 | 36450 ft | 461 kts | 195° |
| 2026-04-30 11:16 | -29.80574 | 152.04729 | 36434 ft | 461 kts | 195° |
| 2026-04-30 11:17 | -29.86791 | 152.03156 | 36437 ft | 459 kts | 195° |
| 2026-04-30 11:17 | -29.93021 | 152.01537 | 36439 ft | 458 kts | 195° |
| 2026-04-30 11:18 | -29.99247 | 151.99904 | 36454 ft | 458 kts | 195° |
| 2026-04-30 11:18 | -30.08555 | 151.97449 | 36459 ft | 457 kts | 195° |
| 2026-04-30 11:19 | -30.14632 | 151.95851 | 36457 ft | 457 kts | 195° |
| 2026-04-30 11:19 | -30.20822 | 151.94225 | 36460 ft | 456 kts | 195° |
| 2026-04-30 11:20 | -30.26878 | 151.92630 | 36448 ft | 456 kts | 195° |
| 2026-04-30 11:20 | -30.33124 | 151.90985 | 36455 ft | 456 kts | 195° |
| 2026-04-30 11:21 | -30.39327 | 151.89399 | 36455 ft | 456 kts | 195° |
| 2026-04-30 11:21 | -30.45496 | 151.87843 | 36469 ft | 456 kts | 195° |
| 2026-04-30 11:22 | -30.51562 | 151.86306 | 36454 ft | 456 kts | 195° |
| 2026-04-30 11:22 | -30.57721 | 151.84739 | 36451 ft | 456 kts | 195° |
| 2026-04-30 11:23 | -30.63828 | 151.83181 | 36457 ft | 456 kts | 195° |
| 2026-04-30 11:24 | -30.73140 | 151.80801 | 36456 ft | 455 kts | 195° |
| 2026-04-30 11:24 | -30.79300 | 151.79224 | 36448 ft | 455 kts | 195° |
| 2026-04-30 11:25 | -30.88586 | 151.76843 | 36446 ft | 455 kts | 195° |
| 2026-04-30 11:26 | -31.00934 | 151.73670 | 36452 ft | 455 kts | 195° |
| 2026-04-30 11:26 | -31.07121 | 151.72077 | 36446 ft | 455 kts | 195° |
| 2026-04-30 11:27 | -31.13301 | 151.70484 | 36450 ft | 455 kts | 195° |
| 2026-04-30 11:27 | -31.19493 | 151.68885 | 36465 ft | 454 kts | 195° |
| 2026-04-30 11:28 | -31.28515 | 151.66552 | 36460 ft | 454 kts | 195° |
| 2026-04-30 11:29 | -31.34698 | 151.64950 | 36449 ft | 454 kts | 195° |
| 2026-04-30 11:29 | -31.43923 | 151.62557 | 36452 ft | 454 kts | 195° |
| 2026-04-30 11:30 | -31.53178 | 151.60151 | 36451 ft | 453 kts | 195° |
| 2026-04-30 11:31 | -31.59340 | 151.58545 | 36441 ft | 453 kts | 195° |
| 2026-04-30 11:31 | -31.65504 | 151.56938 | 36456 ft | 453 kts | 195° |
| 2026-04-30 11:32 | -31.71658 | 151.55330 | 36449 ft | 453 kts | 195° |
| 2026-04-30 11:32 | -31.77775 | 151.53731 | 36446 ft | 453 kts | 195° |
| 2026-04-30 11:33 | -31.86866 | 151.50777 | 36452 ft | 450 kts | 199° |
| 2026-04-30 11:33 | -31.92851 | 151.48540 | 36446 ft | 450 kts | 199° |
| 2026-04-30 11:34 | -31.98800 | 151.46347 | 36441 ft | 451 kts | 199° |
| 2026-04-30 11:34 | -32.04747 | 151.44186 | 36439 ft | 450 kts | 199° |
| 2026-04-30 11:35 | -32.10752 | 151.42010 | 36449 ft | 451 kts | 199° |
| 2026-04-30 11:35 | -32.16721 | 151.39845 | 36432 ft | 451 kts | 199° |
| 2026-04-30 11:36 | -32.22726 | 151.37662 | 36433 ft | 451 kts | 199° |
| 2026-04-30 11:36 | -32.28686 | 151.35492 | 36433 ft | 450 kts | 199° |
| 2026-04-30 11:37 | -32.34684 | 151.33305 | 36428 ft | 451 kts | 199° |
| 2026-04-30 11:37 | -32.40645 | 151.31128 | 36430 ft | 450 kts | 199° |
| 2026-04-30 11:38 | -32.46638 | 151.28937 | 36425 ft | 450 kts | 199° |
| 2026-04-30 11:38 | -32.52593 | 151.26757 | 36426 ft | 450 kts | 199° |
| 2026-04-30 11:39 | -32.58608 | 151.25464 | 36432 ft | 453 kts | 185° |
| 2026-04-30 11:39 | -32.64910 | 151.25180 | 36429 ft | 453 kts | 184° |
| 2026-04-30 11:40 | -32.71223 | 151.24892 | 36428 ft | 453 kts | 184° |
| 2026-04-30 11:40 | -32.77482 | 151.24553 | 36437 ft | 453 kts | 184° |
| 2026-04-30 11:41 | -32.83782 | 151.24195 | 36435 ft | 453 kts | 184° |
| 2026-04-30 11:41 | -32.89930 | 151.23847 | 36433 ft | 453 kts | 184° |
| 2026-04-30 11:42 | -32.96161 | 151.23501 | 36436 ft | 453 kts | 184° |
| 2026-04-30 11:42 | -33.02477 | 151.23207 | 36438 ft | 453 kts | 184° |
| 2026-04-30 11:43 | -33.08425 | 151.22923 | 36439 ft | 453 kts | 184° |
| 2026-04-30 11:43 | -33.14651 | 151.22564 | 36439 ft | 453 kts | 184° |
| 2026-04-30 11:44 | -33.20964 | 151.22198 | 36442 ft | 453 kts | 184° |
| 2026-04-30 11:44 | -33.27073 | 151.21852 | 36448 ft | 452 kts | 184° |
| 2026-04-30 11:45 | -33.33302 | 151.21498 | 36444 ft | 452 kts | 184° |
| 2026-04-30 11:45 | -33.39359 | 151.21154 | 36443 ft | 452 kts | 184° |
| 2026-04-30 11:46 | -33.45565 | 151.20819 | 36435 ft | 452 kts | 183° |
| 2026-04-30 11:46 | -33.51858 | 151.20500 | 36439 ft | 452 kts | 183° |
| 2026-04-30 11:47 | -33.58144 | 151.20180 | 36440 ft | 452 kts | 183° |
| 2026-04-30 11:47 | -33.64433 | 151.19855 | 36438 ft | 452 kts | 183° |
| 2026-04-30 11:48 | -33.70644 | 151.19534 | 36444 ft | 452 kts | 183° |
| 2026-04-30 11:48 | -33.76935 | 151.19208 | 36449 ft | 451 kts | 183° |
| 2026-04-30 11:49 | -33.83141 | 151.18886 | 36454 ft | 451 kts | 183° |
| 2026-04-30 11:49 | -33.89437 | 151.18558 | 36456 ft | 451 kts | 183° |
| 2026-04-30 11:50 | -33.95558 | 151.17317 | 36460 ft | 449 kts | 199° |
| 2026-04-30 11:50 | -34.01205 | 151.14137 | 36461 ft | 448 kts | 208° |
| 2026-04-30 11:51 | -34.06631 | 151.10606 | 36455 ft | 448 kts | 208° |
| 2026-04-30 11:51 | -34.12105 | 151.07074 | 36453 ft | 448 kts | 208° |
| 2026-04-30 11:52 | -34.17621 | 151.03551 | 36445 ft | 448 kts | 208° |
| 2026-04-30 11:52 | -34.22834 | 151.00229 | 36446 ft | 448 kts | 208° |
| 2026-04-30 11:53 | -34.28068 | 150.96889 | 36445 ft | 449 kts | 208° |
| 2026-04-30 11:53 | -34.32654 | 150.93957 | 36222 ft | 453 kts | 208° |
| 2026-04-30 11:54 | -34.36365 | 150.91582 | 35424 ft | 454 kts | 207° |
| 2026-04-30 11:54 | -34.39167 | 150.89787 | 34765 ft | 455 kts | 207° |
| 2026-04-30 11:54 | -34.41966 | 150.87992 | 34036 ft | 456 kts | 207° |
| 2026-04-30 11:54 | -34.43828 | 150.86797 | 33666 ft | 453 kts | 207° |
| 2026-04-30 11:55 | -34.46476 | 150.85097 | 33196 ft | 449 kts | 207° |
| 2026-04-30 11:55 | -34.49225 | 150.83331 | 32701 ft | 445 kts | 207° |
| 2026-04-30 11:55 | -34.51947 | 150.81581 | 32221 ft | 440 kts | 207° |
| 2026-04-30 11:55 | -34.54535 | 150.79613 | 31728 ft | 437 kts | 217° |
| 2026-04-30 11:56 | -34.56817 | 150.77199 | 31294 ft | 434 kts | 224° |
| 2026-04-30 11:56 | -34.58762 | 150.74416 | 30847 ft | 431 kts | 232° |
| 2026-04-30 11:56 | -34.60417 | 150.71671 | 30417 ft | 428 kts | 233° |
| 2026-04-30 11:56 | -34.62169 | 150.68705 | 29875 ft | 424 kts | 234° |
| 2026-04-30 11:57 | -34.63877 | 150.65801 | 29456 ft | 419 kts | 234° |
| 2026-04-30 11:57 | -34.65498 | 150.63059 | 28951 ft | 416 kts | 233° |
| 2026-04-30 11:57 | -34.67189 | 150.60218 | 28459 ft | 413 kts | 233° |
| 2026-04-30 11:57 | -34.68851 | 150.57433 | 27998 ft | 410 kts | 233° |
| 2026-04-30 11:58 | -34.70508 | 150.54664 | 27542 ft | 407 kts | 233° |
| 2026-04-30 11:58 | -34.72155 | 150.51914 | 27091 ft | 404 kts | 233° |
| 2026-04-30 11:58 | -34.73802 | 150.49164 | 26655 ft | 401 kts | 233° |
| 2026-04-30 11:58 | -34.75444 | 150.46423 | 26210 ft | 399 kts | 233° |
| 2026-04-30 11:59 | -34.77074 | 150.43698 | 25767 ft | 397 kts | 234° |
| 2026-04-30 11:59 | -34.78694 | 150.40990 | 25339 ft | 395 kts | 234° |
| 2026-04-30 11:59 | -34.80308 | 150.38287 | 24914 ft | 393 kts | 234° |
| 2026-04-30 11:59 | -34.81895 | 150.35629 | 24466 ft | 392 kts | 234° |
| 2026-04-30 12:00 | -34.83500 | 150.32938 | 24017 ft | 391 kts | 234° |
| 2026-04-30 12:00 | -34.85095 | 150.30260 | 23515 ft | 390 kts | 234° |
| 2026-04-30 12:00 | -34.86684 | 150.27592 | 23057 ft | 387 kts | 234° |
| 2026-04-30 12:00 | -34.88262 | 150.24940 | 22604 ft | 385 kts | 234° |
| 2026-04-30 12:01 | -34.89761 | 150.22418 | 22190 ft | 382 kts | 234° |
| 2026-04-30 12:01 | -34.91276 | 150.19867 | 21775 ft | 380 kts | 234° |
| 2026-04-30 12:01 | -34.92823 | 150.17262 | 21352 ft | 377 kts | 234° |
| 2026-04-30 12:01 | -34.94330 | 150.14721 | 20934 ft | 375 kts | 234° |
| 2026-04-30 12:02 | -34.95855 | 150.12149 | 20519 ft | 373 kts | 234° |
| 2026-04-30 12:02 | -34.97351 | 150.09623 | 20107 ft | 371 kts | 234° |
| 2026-04-30 12:02 | -34.98861 | 150.07072 | 19692 ft | 370 kts | 235° |
| 2026-04-30 12:02 | -35.00227 | 150.04762 | 19317 ft | 368 kts | 235° |
| 2026-04-30 12:03 | -35.01726 | 150.02226 | 18881 ft | 368 kts | 235° |
| 2026-04-30 12:03 | -35.04665 | 149.97251 | 17987 ft | 364 kts | 235° |
| 2026-04-30 12:03 | -35.06194 | 149.94792 | 17546 ft | 363 kts | 230° |
| 2026-04-30 12:04 | -35.07888 | 149.92560 | 17139 ft | 360 kts | 226° |
| 2026-04-30 12:04 | -35.09650 | 149.90385 | 16725 ft | 358 kts | 226° |
| 2026-04-30 12:04 | -35.11379 | 149.88254 | 16317 ft | 356 kts | 226° |
| 2026-04-30 12:04 | -35.13103 | 149.86091 | 15914 ft | 354 kts | 226° |
| 2026-04-30 12:05 | -35.14806 | 149.83921 | 15512 ft | 353 kts | 227° |
| 2026-04-30 12:05 | -35.16492 | 149.81753 | 15108 ft | 351 kts | 227° |
| 2026-04-30 12:05 | -35.18166 | 149.79595 | 14711 ft | 350 kts | 227° |
| 2026-04-30 12:05 | -35.19839 | 149.77432 | 14265 ft | 350 kts | 227° |
| 2026-04-30 12:06 | -35.21511 | 149.75267 | 13809 ft | 349 kts | 227° |
| 2026-04-30 12:06 | -35.23111 | 149.73194 | 13397 ft | 347 kts | 227° |
| 2026-04-30 12:06 | -35.24798 | 149.71006 | 12979 ft | 344 kts | 227° |
| 2026-04-30 12:06 | -35.26392 | 149.68937 | 12598 ft | 342 kts | 227° |
| 2026-04-30 12:07 | -35.28024 | 149.66819 | 12201 ft | 340 kts | 227° |
| 2026-04-30 12:07 | -35.29519 | 149.64877 | 11840 ft | 338 kts | 227° |
| 2026-04-30 12:07 | -35.31190 | 149.62706 | 11439 ft | 336 kts | 227° |
| 2026-04-30 12:07 | -35.32756 | 149.60670 | 10902 ft | 339 kts | 227° |
| 2026-04-30 12:08 | -35.34369 | 149.58572 | 10641 ft | 333 kts | 227° |
| 2026-04-30 12:08 | -35.35881 | 149.56605 | 10498 ft | 324 kts | 227° |
| 2026-04-30 12:08 | -35.37438 | 149.54577 | 10334 ft | 315 kts | 227° |
| 2026-04-30 12:08 | -35.38922 | 149.52643 | 10168 ft | 307 kts | 227° |
| 2026-04-30 12:09 | -35.40366 | 149.50759 | 10004 ft | 300 kts | 227° |
| 2026-04-30 12:09 | -35.41748 | 149.48957 | 9829 ft | 294 kts | 227° |
| 2026-04-30 12:09 | -35.43202 | 149.47059 | 9392 ft | 297 kts | 227° |
| 2026-04-30 12:09 | -35.44615 | 149.45214 | 9075 ft | 296 kts | 227° |
| 2026-04-30 12:10 | -35.46007 | 149.43396 | 8777 ft | 295 kts | 227° |
| 2026-04-30 12:10 | -35.47406 | 149.41565 | 8482 ft | 293 kts | 227° |
| 2026-04-30 12:10 | -35.48797 | 149.39746 | 8186 ft | 291 kts | 227° |
| 2026-04-30 12:10 | -35.50182 | 149.37933 | 7897 ft | 289 kts | 227° |
| 2026-04-30 12:11 | -35.51555 | 149.36134 | 7610 ft | 288 kts | 227° |
| 2026-04-30 12:11 | -35.52924 | 149.34341 | 7327 ft | 286 kts | 227° |
| 2026-04-30 12:11 | -35.54280 | 149.32562 | 7163 ft | 282 kts | 228° |
| 2026-04-30 12:11 | -35.55260 | 149.30634 | 7004 ft | 267 kts | 254° |
| 2026-04-30 12:12 | -35.55634 | 149.28455 | 6900 ft | 250 kts | 262° |
| 2026-04-30 12:12 | -35.55863 | 149.26391 | 6769 ft | 237 kts | 263° |
| 2026-04-30 12:12 | -35.56075 | 149.24423 | 6674 ft | 227 kts | 263° |
| 2026-04-30 12:12 | -35.56108 | 149.22480 | 6475 ft | 230 kts | 287° |
| 2026-04-30 12:13 | -35.55304 | 149.20836 | 6293 ft | 226 kts | 320° |
| 2026-04-30 12:13 | -35.53988 | 149.19855 | 6077 ft | 224 kts | 338° |
| 2026-04-30 12:13 | -35.52504 | 149.19446 | 5971 ft | 216 kts | 357° |
| 2026-04-30 12:13 | -35.50980 | 149.19415 | 5693 ft | 220 kts | 1° |
| 2026-04-30 12:14 | -35.49455 | 149.19434 | 5436 ft | 218 kts | 1° |
| 2026-04-30 12:14 | -35.47942 | 149.19444 | 5126 ft | 217 kts | 1° |
| 2026-04-30 12:14 | -35.46491 | 149.19446 | 4829 ft | 214 kts | 0° |
| 2026-04-30 12:14 | -35.45015 | 149.19445 | 4548 ft | 209 kts | 1° |
| 2026-04-30 12:15 | -35.43594 | 149.19445 | 4278 ft | 205 kts | 1° |
| 2026-04-30 12:15 | -35.42221 | 149.19445 | 4008 ft | 200 kts | 1° |
| 2026-04-30 12:15 | -35.40881 | 149.19445 | 3755 ft | 193 kts | 1° |
| 2026-04-30 12:15 | -35.39586 | 149.19445 | 3492 ft | 180 kts | 1° |
| 2026-04-30 12:16 | -35.38368 | 149.19445 | 3239 ft | 168 kts | 0° |
| 2026-04-30 12:16 | -35.37219 | 149.19446 | 3042 ft | 164 kts | 1° |
| 2026-04-30 12:16 | -35.36183 | 149.19445 | 2825 ft | 161 kts | 1° |
| 2026-04-30 12:16 | -35.35067 | 149.19445 | 2604 ft | 160 kts | 1° |
| 2026-04-30 12:17 | -35.32839 | 149.19444 | 2182 ft | 160 kts | 2° |
| 2026-04-30 12:17 | -35.31770 | 149.19435 | 1966 ft | 158 kts | 2° |
| 2026-04-30 12:17 | -35.30778 | 149.19448 | 1877 ft | 137 kts | 1° |
| 2026-04-30 12:18 | -35.30059 | 149.19446 | 1878 ft | 78 kts | 359° |
| 2026-04-30 12:18 | -35.29725 | 149.19444 | 1877 ft | 25 kts | 360° |
| 2026-04-30 12:18 | -35.29589 | 149.19406 | 1876 ft | 21 kts | 300° |
| 2026-04-30 12:18 | -35.29586 | 149.19288 | 1878 ft | 0 kts | 252° |
| 2026-04-30 12:19 | -35.29589 | 149.19278 | 1878 ft | 4 kts | 245° |
| 2026-04-30 12:19 | -35.29635 | 149.19243 | 1878 ft | 12 kts | 184° |
| 2026-04-30 12:19 | -35.29742 | 149.19243 | 1878 ft | 18 kts | 180° |
| 2026-04-30 12:20 | -35.29864 | 149.19244 | 1877 ft | 17 kts | 179° |
| 2026-04-30 12:20 | -35.29984 | 149.19244 | 1878 ft | 17 kts | 180° |
| 2026-04-30 12:20 | -35.30090 | 149.19243 | 1876 ft | 16 kts | 180° |
| 2026-04-30 12:20 | -35.30201 | 149.19239 | 1878 ft | 16 kts | 180° |
| 2026-04-30 12:21 | -35.30309 | 149.19239 | 1876 ft | 15 kts | 180° |
| 2026-04-30 12:21 | -35.30412 | 149.19239 | 1878 ft | 14 kts | 180° |
| 2026-04-30 12:21 | -35.30510 | 149.19240 | 1876 ft | 14 kts | 180° |
| 2026-04-30 12:21 | -35.30605 | 149.19238 | 1879 ft | 12 kts | 184° |
| 2026-04-30 12:22 | -35.30640 | 149.19172 | 1879 ft | 12 kts | 292° |
| 2026-04-30 12:22 | -35.30613 | 149.19114 | 1879 ft | 5 kts | 266° |
| 2026-04-30 12:22 | -35.30627 | 149.19087 | 1879 ft | 4 kts | 231° |
| 2026-04-30 12:22 | -35.30646 | 149.19065 | 1876 ft | 4 kts | 221° |
| 2026-04-30 12:23 | -35.30650 | 149.19060 | 1879 ft | 0 kts | 221° |